sensor_id;sensor_type;location;lat;lon;timestamp;temperature;humidity
53776;DHT22;44276;49.534;6.378;2022-07-23T00:01:40;19.00;99.90
53776;DHT22;44276;49.534;6.378;2022-07-23T00:04:09;19.00;99.90
53776;DHT22;44276;49.534;6.378;2022-07-23T00:06:38;18.90;99.90
53776;DHT22;44276;49.534;6.378;2022-07-23T00:09:06;18.90;99.90
53776;DHT22;44276;49.534;6.378;2022-07-23T00:11:34;18.90;99.90
53776;DHT22;44276;49.534;6.378;2022-07-23T00:14:02;18.70;99.90
53776;DHT22;44276;49.534;6.378;2022-07-23T00:16:30;18.60;99.90
53776;DHT22;44276;49.534;6.378;2022-07-23T00:18:59;18.50;99.90
53776;DHT22;44276;49.534;6.378;2022-07-23T00:21:29;18.50;99.90
53776;DHT22;44276;49.534;6.378;2022-07-23T00:23:59;18.40;99.90
53776;DHT22;44276;49.534;6.378;2022-07-23T00:26:27;18.40;99.90
53776;DHT22;44276;49.534;6.378;2022-07-23T00:28:55;18.40;99.90
53776;DHT22;44276;49.534;6.378;2022-07-23T00:31:24;18.30;99.90
53776;DHT22;44276;49.534;6.378;2022-07-23T00:33:53;18.30;99.90
53776;DHT22;44276;49.534;6.378;2022-07-23T00:36:23;18.30;99.90
53776;DHT22;44276;49.534;6.378;2022-07-23T00:38:51;18.30;99.90
53776;DHT22;44276;49.534;6.378;2022-07-23T00:41:21;18.20;99.90
53776;DHT22;44276;49.534;6.378;2022-07-23T00:43:49;18.20;99.90
53776;DHT22;44276;49.534;6.378;2022-07-23T00:46:19;18.20;99.90
53776;DHT22;44276;49.534;6.378;2022-07-23T00:48:48;18.10;99.90
53776;DHT22;44276;49.534;6.378;2022-07-23T00:51:16;18.10;99.90
53776;DHT22;44276;49.534;6.378;2022-07-23T00:53:45;18.10;99.90
53776;DHT22;44276;49.534;6.378;2022-07-23T00:56:13;18.10;99.90
53776;DHT22;44276;49.534;6.378;2022-07-23T00:58:43;18.10;99.90
53776;DHT22;44276;49.534;6.378;2022-07-23T01:01:12;18.20;99.90
53776;DHT22;44276;49.534;6.378;2022-07-23T01:03:40;18.20;99.90
53776;DHT22;44276;49.534;6.378;2022-07-23T01:06:09;18.20;99.90
53776;DHT22;44276;49.534;6.378;2022-07-23T01:08:37;18.30;99.90
53776;DHT22;44276;49.534;6.378;2022-07-23T01:11:05;18.30;99.90
53776;DHT22;44276;49.534;6.378;2022-07-23T01:13:34;18.30;99.90
53776;DHT22;44276;49.534;6.378;2022-07-23T01:16:03;18.30;99.90
53776;DHT22;44276;49.534;6.378;2022-07-23T01:18:36;18.10;99.90
53776;DHT22;44276;49.534;6.378;2022-07-23T01:21:04;18.10;99.90
53776;DHT22;44276;49.534;6.378;2022-07-23T01:23:34;18.00;99.90
53776;DHT22;44276;49.534;6.378;2022-07-23T01:26:02;18.00;99.90
53776;DHT22;44276;49.534;6.378;2022-07-23T01:28:31;18.00;99.90
53776;DHT22;44276;49.534;6.378;2022-07-23T01:30:59;17.90;99.90
53776;DHT22;44276;49.534;6.378;2022-07-23T01:33:27;17.90;99.90
53776;DHT22;44276;49.534;6.378;2022-07-23T01:35:55;18.00;99.90
53776;DHT22;44276;49.534;6.378;2022-07-23T01:38:23;17.90;99.90
53776;DHT22;44276;49.534;6.378;2022-07-23T01:40:53;17.90;99.90
53776;DHT22;44276;49.534;6.378;2022-07-23T01:43:21;17.90;99.90
53776;DHT22;44276;49.534;6.378;2022-07-23T01:45:52;18.00;99.90
53776;DHT22;44276;49.534;6.378;2022-07-23T01:48:21;18.00;99.90
53776;DHT22;44276;49.534;6.378;2022-07-23T01:50:49;18.10;99.90
53776;DHT22;44276;49.534;6.378;2022-07-23T01:53:17;18.10;99.90
53776;DHT22;44276;49.534;6.378;2022-07-23T01:55:46;18.00;99.90
53776;DHT22;44276;49.534;6.378;2022-07-23T01:58:15;18.00;99.90
53776;DHT22;44276;49.534;6.378;2022-07-23T02:00:43;17.90;99.90
53776;DHT22;44276;49.534;6.378;2022-07-23T02:03:12;17.80;99.90
53776;DHT22;44276;49.534;6.378;2022-07-23T02:05:40;17.80;99.90
53776;DHT22;44276;49.534;6.378;2022-07-23T02:08:08;17.70;99.90
53776;DHT22;44276;49.534;6.378;2022-07-23T02:10:36;17.60;99.90
53776;DHT22;44276;49.534;6.378;2022-07-23T02:13:04;17.60;99.90
53776;DHT22;44276;49.534;6.378;2022-07-23T02:15:34;17.50;99.90
53776;DHT22;44276;49.534;6.378;2022-07-23T02:18:02;17.50;99.90
53776;DHT22;44276;49.534;6.378;2022-07-23T02:20:31;17.50;99.90
53776;DHT22;44276;49.534;6.378;2022-07-23T02:23:00;17.60;99.90
53776;DHT22;44276;49.534;6.378;2022-07-23T02:25:28;17.60;99.90
53776;DHT22;44276;49.534;6.378;2022-07-23T02:27:56;17.70;99.90
53776;DHT22;44276;49.534;6.378;2022-07-23T02:30:24;17.70;99.90
53776;DHT22;44276;49.534;6.378;2022-07-23T02:32:54;17.70;99.90
53776;DHT22;44276;49.534;6.378;2022-07-23T02:35:22;17.70;99.90
53776;DHT22;44276;49.534;6.378;2022-07-23T02:37:51;17.60;99.90
53776;DHT22;44276;49.534;6.378;2022-07-23T02:40:19;17.60;99.90
53776;DHT22;44276;49.534;6.378;2022-07-23T02:42:47;17.60;99.90
53776;DHT22;44276;49.534;6.378;2022-07-23T02:45:15;17.50;99.90
53776;DHT22;44276;49.534;6.378;2022-07-23T02:47:43;17.60;99.90
53776;DHT22;44276;49.534;6.378;2022-07-23T02:50:13;17.60;99.90
53776;DHT22;44276;49.534;6.378;2022-07-23T02:52:41;17.60;99.90
53776;DHT22;44276;49.534;6.378;2022-07-23T02:55:09;17.70;99.90
53776;DHT22;44276;49.534;6.378;2022-07-23T02:57:38;17.70;99.90
53776;DHT22;44276;49.534;6.378;2022-07-23T03:00:07;17.70;99.90
53776;DHT22;44276;49.534;6.378;2022-07-23T03:02:37;17.60;99.90
53776;DHT22;44276;49.534;6.378;2022-07-23T03:05:05;17.60;99.90
53776;DHT22;44276;49.534;6.378;2022-07-23T03:07:35;17.50;99.90
53776;DHT22;44276;49.534;6.378;2022-07-23T03:10:04;17.50;99.90
53776;DHT22;44276;49.534;6.378;2022-07-23T03:12:33;17.50;99.90
53776;DHT22;44276;49.534;6.378;2022-07-23T03:15:02;17.50;99.90
53776;DHT22;44276;49.534;6.378;2022-07-23T03:17:30;17.40;99.90
53776;DHT22;44276;49.534;6.378;2022-07-23T03:19:58;17.30;99.90
53776;DHT22;44276;49.534;6.378;2022-07-23T03:22:26;17.20;99.90
53776;DHT22;44276;49.534;6.378;2022-07-23T03:24:56;17.10;99.90
53776;DHT22;44276;49.534;6.378;2022-07-23T03:27:25;17.00;99.90
53776;DHT22;44276;49.534;6.378;2022-07-23T03:29:56;16.90;99.90
53776;DHT22;44276;49.534;6.378;2022-07-23T03:32:26;16.80;99.90
53776;DHT22;44276;49.534;6.378;2022-07-23T03:34:55;16.90;99.90
53776;DHT22;44276;49.534;6.378;2022-07-23T03:37:23;16.90;99.90
53776;DHT22;44276;49.534;6.378;2022-07-23T03:39:51;16.90;99.90
53776;DHT22;44276;49.534;6.378;2022-07-23T03:42:21;17.00;99.90
53776;DHT22;44276;49.534;6.378;2022-07-23T03:44:49;17.10;99.90
53776;DHT22;44276;49.534;6.378;2022-07-23T03:47:17;17.10;99.90
53776;DHT22;44276;49.534;6.378;2022-07-23T03:49:48;17.10;99.90
53776;DHT22;44276;49.534;6.378;2022-07-23T03:52:16;17.10;99.90
53776;DHT22;44276;49.534;6.378;2022-07-23T03:54:44;17.10;99.90
53776;DHT22;44276;49.534;6.378;2022-07-23T03:57:12;17.10;99.90
53776;DHT22;44276;49.534;6.378;2022-07-23T03:59:42;17.00;99.90
53776;DHT22;44276;49.534;6.378;2022-07-23T04:02:10;16.90;99.90
53776;DHT22;44276;49.534;6.378;2022-07-23T04:04:38;16.90;99.90
53776;DHT22;44276;49.534;6.378;2022-07-23T04:07:06;16.80;99.90
53776;DHT22;44276;49.534;6.378;2022-07-23T04:09:34;16.80;99.90
53776;DHT22;44276;49.534;6.378;2022-07-23T04:12:03;16.70;99.90
53776;DHT22;44276;49.534;6.378;2022-07-23T04:14:31;16.70;99.90
53776;DHT22;44276;49.534;6.378;2022-07-23T04:17:02;16.60;99.90
53776;DHT22;44276;49.534;6.378;2022-07-23T04:19:30;16.60;99.90
53776;DHT22;44276;49.534;6.378;2022-07-23T04:21:58;16.50;99.90
53776;DHT22;44276;49.534;6.378;2022-07-23T04:24:26;16.50;99.90
53776;DHT22;44276;49.534;6.378;2022-07-23T04:26:54;16.60;99.90
53776;DHT22;44276;49.534;6.378;2022-07-23T04:29:22;16.60;99.90
53776;DHT22;44276;49.534;6.378;2022-07-23T04:31:50;16.60;99.90
53776;DHT22;44276;49.534;6.378;2022-07-23T04:34:20;16.70;99.90
53776;DHT22;44276;49.534;6.378;2022-07-23T04:36:48;16.70;99.90
53776;DHT22;44276;49.534;6.378;2022-07-23T04:39:16;16.60;99.90
53776;DHT22;44276;49.534;6.378;2022-07-23T04:41:44;16.70;99.90
53776;DHT22;44276;49.534;6.378;2022-07-23T04:44:12;16.70;99.90
53776;DHT22;44276;49.534;6.378;2022-07-23T04:46:41;16.80;99.90
53776;DHT22;44276;49.534;6.378;2022-07-23T04:49:09;16.80;99.90
53776;DHT22;44276;49.534;6.378;2022-07-23T04:51:38;16.90;99.90
53776;DHT22;44276;49.534;6.378;2022-07-23T04:54:07;16.90;99.90
53776;DHT22;44276;49.534;6.378;2022-07-23T04:56:35;17.00;99.90
53776;DHT22;44276;49.534;6.378;2022-07-23T04:59:03;17.00;99.90
53776;DHT22;44276;49.534;6.378;2022-07-23T05:01:31;17.00;99.90
53776;DHT22;44276;49.534;6.378;2022-07-23T05:03:59;17.00;99.90
53776;DHT22;44276;49.534;6.378;2022-07-23T05:06:28;17.10;99.90
53776;DHT22;44276;49.534;6.378;2022-07-23T05:08:57;17.30;99.90
53776;DHT22;44276;49.534;6.378;2022-07-23T05:11:26;17.30;99.90
53776;DHT22;44276;49.534;6.378;2022-07-23T05:13:54;17.40;99.90
53776;DHT22;44276;49.534;6.378;2022-07-23T05:16:22;17.50;99.90
53776;DHT22;44276;49.534;6.378;2022-07-23T05:18:50;17.60;99.90
53776;DHT22;44276;49.534;6.378;2022-07-23T05:21:18;17.70;99.90
53776;DHT22;44276;49.534;6.378;2022-07-23T05:23:46;18.00;99.90
53776;DHT22;44276;49.534;6.378;2022-07-23T05:26:16;18.50;99.90
53776;DHT22;44276;49.534;6.378;2022-07-23T05:28:47;19.10;99.90
53776;DHT22;44276;49.534;6.378;2022-07-23T05:31:16;19.40;99.90
53776;DHT22;44276;49.534;6.378;2022-07-23T05:33:44;19.80;99.90
53776;DHT22;44276;49.534;6.378;2022-07-23T05:36:12;20.40;99.90
53776;DHT22;44276;49.534;6.378;2022-07-23T05:38:41;20.80;99.90
53776;DHT22;44276;49.534;6.378;2022-07-23T05:41:09;21.60;99.90
53776;DHT22;44276;49.534;6.378;2022-07-23T05:43:38;22.00;99.90
53776;DHT22;44276;49.534;6.378;2022-07-23T05:46:06;22.10;99.90
53776;DHT22;44276;49.534;6.378;2022-07-23T05:48:36;21.40;99.90
53776;DHT22;44276;49.534;6.378;2022-07-23T05:51:04;20.90;99.90
53776;DHT22;44276;49.534;6.378;2022-07-23T05:53:33;20.30;99.90
53776;DHT22;44276;49.534;6.378;2022-07-23T05:56:02;20.10;99.90
53776;DHT22;44276;49.534;6.378;2022-07-23T05:58:31;20.70;99.90
53776;DHT22;44276;49.534;6.378;2022-07-23T06:01:01;21.70;99.90
53776;DHT22;44276;49.534;6.378;2022-07-23T06:03:29;22.50;99.90
53776;DHT22;44276;49.534;6.378;2022-07-23T06:05:57;22.80;99.90
53776;DHT22;44276;49.534;6.378;2022-07-23T06:08:25;22.80;99.90
53776;DHT22;44276;49.534;6.378;2022-07-23T06:10:53;22.70;99.90
53776;DHT22;44276;49.534;6.378;2022-07-23T06:13:22;22.60;99.90
53776;DHT22;44276;49.534;6.378;2022-07-23T06:15:50;22.80;99.90
53776;DHT22;44276;49.534;6.378;2022-07-23T06:18:20;22.70;99.90
53776;DHT22;44276;49.534;6.378;2022-07-23T06:20:48;22.30;99.90
53776;DHT22;44276;49.534;6.378;2022-07-23T06:23:20;22.20;99.90
53776;DHT22;44276;49.534;6.378;2022-07-23T06:25:48;22.80;99.90
53776;DHT22;44276;49.534;6.378;2022-07-23T06:28:16;22.90;99.90
53776;DHT22;44276;49.534;6.378;2022-07-23T06:30:47;23.30;99.90
53776;DHT22;44276;49.534;6.378;2022-07-23T06:33:16;23.30;99.90
53776;DHT22;44276;49.534;6.378;2022-07-23T06:35:46;23.10;99.90
53776;DHT22;44276;49.534;6.378;2022-07-23T06:38:14;22.70;99.90
53776;DHT22;44276;49.534;6.378;2022-07-23T06:40:43;22.60;99.90
53776;DHT22;44276;49.534;6.378;2022-07-23T06:43:11;22.60;99.90
53776;DHT22;44276;49.534;6.378;2022-07-23T06:45:40;22.40;99.90
53776;DHT22;44276;49.534;6.378;2022-07-23T06:48:08;22.40;99.90
53776;DHT22;44276;49.534;6.378;2022-07-23T06:50:36;22.50;99.90
53776;DHT22;44276;49.534;6.378;2022-07-23T06:53:06;22.90;99.90
53776;DHT22;44276;49.534;6.378;2022-07-23T06:55:34;23.00;99.90
53776;DHT22;44276;49.534;6.378;2022-07-23T06:58:05;23.10;99.90
53776;DHT22;44276;49.534;6.378;2022-07-23T07:00:35;23.50;99.90
53776;DHT22;44276;49.534;6.378;2022-07-23T07:03:07;24.30;99.90
53776;DHT22;44276;49.534;6.378;2022-07-23T07:05:36;25.40;99.90
53776;DHT22;44276;49.534;6.378;2022-07-23T07:08:05;26.70;84.30
53776;DHT22;44276;49.534;6.378;2022-07-23T07:10:34;26.80;79.50
53776;DHT22;44276;49.534;6.378;2022-07-23T07:13:02;26.90;74.90
53776;DHT22;44276;49.534;6.378;2022-07-23T07:15:32;26.80;74.20
53776;DHT22;44276;49.534;6.378;2022-07-23T07:18:01;27.00;76.30
53776;DHT22;44276;49.534;6.378;2022-07-23T07:20:29;27.50;70.60
53776;DHT22;44276;49.534;6.378;2022-07-23T07:22:57;28.30;62.30
53776;DHT22;44276;49.534;6.378;2022-07-23T07:25:27;28.00;60.60
53776;DHT22;44276;49.534;6.378;2022-07-23T07:27:56;28.40;59.30
53776;DHT22;44276;49.534;6.378;2022-07-23T07:30:24;29.10;55.60
53776;DHT22;44276;49.534;6.378;2022-07-23T07:32:59;29.90;51.20
53776;DHT22;44276;49.534;6.378;2022-07-23T07:35:28;30.20;43.40
53776;DHT22;44276;49.534;6.378;2022-07-23T07:37:56;30.40;42.50
53776;DHT22;44276;49.534;6.378;2022-07-23T07:40:24;30.50;41.30
53776;DHT22;44276;49.534;6.378;2022-07-23T07:43:00;30.80;39.30
53776;DHT22;44276;49.534;6.378;2022-07-23T07:45:30;31.70;36.00
53776;DHT22;44276;49.534;6.378;2022-07-23T07:47:58;32.10;35.10
53776;DHT22;44276;49.534;6.378;2022-07-23T07:50:26;32.90;33.00
53776;DHT22;44276;49.534;6.378;2022-07-23T07:52:55;32.30;34.10
53776;DHT22;44276;49.534;6.378;2022-07-23T07:55:23;31.50;34.10
53776;DHT22;44276;49.534;6.378;2022-07-23T07:57:51;30.40;35.70
53776;DHT22;44276;49.534;6.378;2022-07-23T08:00:21;30.40;35.80
53776;DHT22;44276;49.534;6.378;2022-07-23T08:02:51;30.90;34.50
53776;DHT22;44276;49.534;6.378;2022-07-23T08:05:21;32.10;32.70
53776;DHT22;44276;49.534;6.378;2022-07-23T08:07:54;33.10;31.90
53776;DHT22;44276;49.534;6.378;2022-07-23T08:10:23;33.90;29.00
53776;DHT22;44276;49.534;6.378;2022-07-23T08:12:53;34.70;27.90
53776;DHT22;44276;49.534;6.378;2022-07-23T08:15:26;36.00;26.40
53776;DHT22;44276;49.534;6.378;2022-07-23T08:17:55;35.60;25.30
53776;DHT22;44276;49.534;6.378;2022-07-23T08:20:25;35.60;25.70
53776;DHT22;44276;49.534;6.378;2022-07-23T08:22:56;35.50;25.10
53776;DHT22;44276;49.534;6.378;2022-07-23T08:25:27;35.90;24.90
53776;DHT22;44276;49.534;6.378;2022-07-23T08:27:56;35.50;25.10
53776;DHT22;44276;49.534;6.378;2022-07-23T08:30:28;34.80;26.00
53776;DHT22;44276;49.534;6.378;2022-07-23T08:32:59;34.80;25.60
53776;DHT22;44276;49.534;6.378;2022-07-23T08:35:30;35.50;24.80
53776;DHT22;44276;49.534;6.378;2022-07-23T08:38:03;35.80;24.90
53776;DHT22;44276;49.534;6.378;2022-07-23T08:40:36;34.50;25.40
53776;DHT22;44276;49.534;6.378;2022-07-23T08:43:10;34.50;26.50
53776;DHT22;44276;49.534;6.378;2022-07-23T08:45:43;35.40;26.00
53776;DHT22;44276;49.534;6.378;2022-07-23T08:48:14;36.40;23.70
53776;DHT22;44276;49.534;6.378;2022-07-23T08:50:47;37.30;23.20
53776;DHT22;44276;49.534;6.378;2022-07-23T08:53:18;37.60;22.50
53776;DHT22;44276;49.534;6.378;2022-07-23T08:55:47;37.80;22.10
53776;DHT22;44276;49.534;6.378;2022-07-23T08:58:17;38.90;20.90
53776;DHT22;44276;49.534;6.378;2022-07-23T09:00:55;38.30;21.20
53776;DHT22;44276;49.534;6.378;2022-07-23T09:03:26;37.20;21.90
53776;DHT22;44276;49.534;6.378;2022-07-23T09:05:56;38.40;20.70
53776;DHT22;44276;49.534;6.378;2022-07-23T09:08:34;38.80;20.60
53776;DHT22;44276;49.534;6.378;2022-07-23T09:11:05;39.30;19.50
53776;DHT22;44276;49.534;6.378;2022-07-23T09:13:37;38.50;20.30
53776;DHT22;44276;49.534;6.378;2022-07-23T09:16:10;38.50;19.90
53776;DHT22;44276;49.534;6.378;2022-07-23T09:18:45;38.30;20.20
53776;DHT22;44276;49.534;6.378;2022-07-23T09:21:18;37.80;20.60
53776;DHT22;44276;49.534;6.378;2022-07-23T09:23:52;36.10;22.40
53776;DHT22;44276;49.534;6.378;2022-07-23T09:26:30;34.80;23.30
53776;DHT22;44276;49.534;6.378;2022-07-23T09:29:13;33.50;24.40
53776;DHT22;44276;49.534;6.378;2022-07-23T09:31:48;32.60;25.70
53776;DHT22;44276;49.534;6.378;2022-07-23T09:34:20;31.70;27.00
53776;DHT22;44276;49.534;6.378;2022-07-23T09:36:52;32.70;25.90
53776;DHT22;44276;49.534;6.378;2022-07-23T09:39:29;32.40;26.10
53776;DHT22;44276;49.534;6.378;2022-07-23T09:42:13;32.90;25.40
53776;DHT22;44276;49.534;6.378;2022-07-23T09:44:43;33.00;25.20
53776;DHT22;44276;49.534;6.378;2022-07-23T09:47:14;33.50;25.10
53776;DHT22;44276;49.534;6.378;2022-07-23T09:49:58;34.10;24.10
53776;DHT22;44276;49.534;6.378;2022-07-23T09:52:28;34.10;24.20
53776;DHT22;44276;49.534;6.378;2022-07-23T09:55:02;32.70;25.40
53776;DHT22;44276;49.534;6.378;2022-07-23T09:57:32;32.60;25.60
53776;DHT22;44276;49.534;6.378;2022-07-23T10:00:03;33.70;24.80
53776;DHT22;44276;49.534;6.378;2022-07-23T10:02:34;33.40;24.70
53776;DHT22;44276;49.534;6.378;2022-07-23T10:05:04;33.40;24.90
53776;DHT22;44276;49.534;6.378;2022-07-23T10:07:36;34.40;23.90
53776;DHT22;44276;49.534;6.378;2022-07-23T10:10:06;35.60;23.00
53776;DHT22;44276;49.534;6.378;2022-07-23T10:12:36;35.80;21.90
53776;DHT22;44276;49.534;6.378;2022-07-23T10:15:21;35.70;22.70
53776;DHT22;44276;49.534;6.378;2022-07-23T10:17:51;34.10;24.40
53776;DHT22;44276;49.534;6.378;2022-07-23T10:20:19;33.10;24.80
53776;DHT22;44276;49.534;6.378;2022-07-23T10:22:54;32.30;25.60
53776;DHT22;44276;49.534;6.378;2022-07-23T10:25:36;31.60;26.30
53776;DHT22;44276;49.534;6.378;2022-07-23T10:28:24;32.00;26.90
53776;DHT22;44276;49.534;6.378;2022-07-23T10:31:13;32.70;26.20
53776;DHT22;44276;49.534;6.378;2022-07-23T10:34:18;33.50;24.40
53776;DHT22;44276;49.534;6.378;2022-07-23T10:36:55;34.20;23.60
53776;DHT22;44276;49.534;6.378;2022-07-23T10:39:29;35.60;22.50
53776;DHT22;44276;49.534;6.378;2022-07-23T10:42:08;35.60;22.20
53776;DHT22;44276;49.534;6.378;2022-07-23T10:44:39;34.60;22.90
53776;DHT22;44276;49.534;6.378;2022-07-23T10:47:09;34.40;22.50
53776;DHT22;44276;49.534;6.378;2022-07-23T10:49:53;35.70;22.50
53776;DHT22;44276;49.534;6.378;2022-07-23T10:53:09;36.50;21.00
53776;DHT22;44276;49.534;6.378;2022-07-23T10:55:42;36.30;21.00
53776;DHT22;44276;49.534;6.378;2022-07-23T10:58:18;36.60;20.80
53776;DHT22;44276;49.534;6.378;2022-07-23T11:00:48;36.30;20.40
53776;DHT22;44276;49.534;6.378;2022-07-23T11:03:34;37.20;20.20
53776;DHT22;44276;49.534;6.378;2022-07-23T11:06:07;37.70;19.90
53776;DHT22;44276;49.534;6.378;2022-07-23T11:08:35;38.30;19.60
53776;DHT22;44276;49.534;6.378;2022-07-23T11:11:11;37.60;19.80
53776;DHT22;44276;49.534;6.378;2022-07-23T11:13:47;38.10;19.60
53776;DHT22;44276;49.534;6.378;2022-07-23T11:16:21;37.90;19.10
53776;DHT22;44276;49.534;6.378;2022-07-23T11:19:12;37.50;19.60
53776;DHT22;44276;49.534;6.378;2022-07-23T11:21:49;38.50;18.90
53776;DHT22;44276;49.534;6.378;2022-07-23T11:24:23;39.30;17.50
53776;DHT22;44276;49.534;6.378;2022-07-23T11:27:01;38.70;18.00
53776;DHT22;44276;49.534;6.378;2022-07-23T11:29:44;38.70;18.20
53776;DHT22;44276;49.534;6.378;2022-07-23T11:32:27;37.40;18.70
53776;DHT22;44276;49.534;6.378;2022-07-23T11:35:00;35.40;21.30
53776;DHT22;44276;49.534;6.378;2022-07-23T11:37:33;35.90;20.80
53776;DHT22;44276;49.534;6.378;2022-07-23T11:40:08;38.00;19.20
53776;DHT22;44276;49.534;6.378;2022-07-23T11:42:38;39.10;18.10
53776;DHT22;44276;49.534;6.378;2022-07-23T11:45:08;39.00;18.20
53776;DHT22;44276;49.534;6.378;2022-07-23T11:47:36;37.80;19.20
53776;DHT22;44276;49.534;6.378;2022-07-23T11:50:06;36.40;20.40
53776;DHT22;44276;49.534;6.378;2022-07-23T11:52:36;35.60;21.40
53776;DHT22;44276;49.534;6.378;2022-07-23T11:55:06;35.10;22.00
53776;DHT22;44276;49.534;6.378;2022-07-23T11:57:37;35.80;20.90
53776;DHT22;44276;49.534;6.378;2022-07-23T12:00:08;35.60;20.90
53776;DHT22;44276;49.534;6.378;2022-07-23T12:02:38;36.60;20.20
53776;DHT22;44276;49.534;6.378;2022-07-23T12:05:10;37.10;19.40
53776;DHT22;44276;49.534;6.378;2022-07-23T12:07:42;37.30;19.30
53776;DHT22;44276;49.534;6.378;2022-07-23T12:10:14;36.60;19.60
53776;DHT22;44276;49.534;6.378;2022-07-23T12:12:46;36.30;20.20
53776;DHT22;44276;49.534;6.378;2022-07-23T12:15:19;36.30;20.40
53776;DHT22;44276;49.534;6.378;2022-07-23T12:17:50;36.00;20.40
53776;DHT22;44276;49.534;6.378;2022-07-23T12:20:21;36.80;20.10
53776;DHT22;44276;49.534;6.378;2022-07-23T12:22:56;37.70;18.90
53776;DHT22;44276;49.534;6.378;2022-07-23T12:25:28;38.30;18.50
53776;DHT22;44276;49.534;6.378;2022-07-23T12:27:59;38.50;18.60
53776;DHT22;44276;49.534;6.378;2022-07-23T12:30:34;38.50;18.00
53776;DHT22;44276;49.534;6.378;2022-07-23T12:33:07;38.50;17.30
53776;DHT22;44276;49.534;6.378;2022-07-23T12:35:38;38.50;17.30
53776;DHT22;44276;49.534;6.378;2022-07-23T12:38:12;38.30;18.00
53776;DHT22;44276;49.534;6.378;2022-07-23T12:40:44;37.00;19.30
53776;DHT22;44276;49.534;6.378;2022-07-23T12:43:20;35.90;19.90
53776;DHT22;44276;49.534;6.378;2022-07-23T12:45:51;36.30;19.90
53776;DHT22;44276;49.534;6.378;2022-07-23T12:48:23;37.70;18.90
53776;DHT22;44276;49.534;6.378;2022-07-23T12:50:55;38.30;18.70
53776;DHT22;44276;49.534;6.378;2022-07-23T12:53:29;37.60;18.50
53776;DHT22;44276;49.534;6.378;2022-07-23T12:56:03;36.70;18.70
53776;DHT22;44276;49.534;6.378;2022-07-23T12:58:46;37.00;18.70
53776;DHT22;44276;49.534;6.378;2022-07-23T13:01:28;37.70;18.20
53776;DHT22;44276;49.534;6.378;2022-07-23T13:04:01;37.30;18.30
53776;DHT22;44276;49.534;6.378;2022-07-23T13:06:53;37.00;17.70
53776;DHT22;44276;49.534;6.378;2022-07-23T13:09:29;36.90;18.10
53776;DHT22;44276;49.534;6.378;2022-07-23T13:12:03;36.50;19.20
53776;DHT22;44276;49.534;6.378;2022-07-23T13:14:31;36.60;18.60
53776;DHT22;44276;49.534;6.378;2022-07-23T13:17:00;37.20;18.20
53776;DHT22;44276;49.534;6.378;2022-07-23T13:19:32;37.40;18.00
53776;DHT22;44276;49.534;6.378;2022-07-23T13:22:01;37.30;17.10
53776;DHT22;44276;49.534;6.378;2022-07-23T13:24:36;37.00;17.00
53776;DHT22;44276;49.534;6.378;2022-07-23T13:27:05;37.10;17.40
53776;DHT22;44276;49.534;6.378;2022-07-23T13:29:37;37.90;17.20
53776;DHT22;44276;49.534;6.378;2022-07-23T13:32:05;38.80;16.60
53776;DHT22;44276;49.534;6.378;2022-07-23T13:34:53;37.90;17.40
53776;DHT22;44276;49.534;6.378;2022-07-23T13:37:21;36.20;18.80
53776;DHT22;44276;49.534;6.378;2022-07-23T13:39:52;35.20;19.70
53776;DHT22;44276;49.534;6.378;2022-07-23T13:42:20;34.00;21.40
53776;DHT22;44276;49.534;6.378;2022-07-23T13:44:49;33.10;22.50
53776;DHT22;44276;49.534;6.378;2022-07-23T13:47:17;33.10;22.70
53776;DHT22;44276;49.534;6.378;2022-07-23T13:49:45;33.60;21.90
53776;DHT22;44276;49.534;6.378;2022-07-23T13:52:14;34.20;22.00
53776;DHT22;44276;49.534;6.378;2022-07-23T13:54:42;35.20;19.80
53776;DHT22;44276;49.534;6.378;2022-07-23T13:57:12;35.80;18.60
53776;DHT22;44276;49.534;6.378;2022-07-23T13:59:41;36.10;19.10
53776;DHT22;44276;49.534;6.378;2022-07-23T14:02:09;36.20;18.90
53776;DHT22;44276;49.534;6.378;2022-07-23T14:04:51;36.00;18.60
53776;DHT22;44276;49.534;6.378;2022-07-23T14:07:19;36.00;18.50
53776;DHT22;44276;49.534;6.378;2022-07-23T14:09:48;36.70;18.40
53776;DHT22;44276;49.534;6.378;2022-07-23T14:12:19;37.10;17.70
53776;DHT22;44276;49.534;6.378;2022-07-23T14:14:49;36.80;16.90
53776;DHT22;44276;49.534;6.378;2022-07-23T14:17:18;35.90;18.20
53776;DHT22;44276;49.534;6.378;2022-07-23T14:19:46;34.70;19.50
53776;DHT22;44276;49.534;6.378;2022-07-23T14:22:14;34.70;20.00
53776;DHT22;44276;49.534;6.378;2022-07-23T14:24:43;34.40;20.80
53776;DHT22;44276;49.534;6.378;2022-07-23T14:27:11;34.10;21.10
53776;DHT22;44276;49.534;6.378;2022-07-23T14:29:43;33.60;22.00
53776;DHT22;44276;49.534;6.378;2022-07-23T14:32:11;33.50;21.80
53776;DHT22;44276;49.534;6.378;2022-07-23T14:34:39;33.60;22.20
53776;DHT22;44276;49.534;6.378;2022-07-23T14:37:08;33.80;21.70
53776;DHT22;44276;49.534;6.378;2022-07-23T14:39:41;34.40;20.50
53776;DHT22;44276;49.534;6.378;2022-07-23T14:42:12;34.90;20.40
53776;DHT22;44276;49.534;6.378;2022-07-23T14:44:43;35.40;19.90
53776;DHT22;44276;49.534;6.378;2022-07-23T14:47:11;35.50;19.50
53776;DHT22;44276;49.534;6.378;2022-07-23T14:49:46;35.50;19.80
53776;DHT22;44276;49.534;6.378;2022-07-23T14:52:15;36.00;19.20
53776;DHT22;44276;49.534;6.378;2022-07-23T14:54:44;36.30;19.20
53776;DHT22;44276;49.534;6.378;2022-07-23T14:57:12;36.50;17.80
53776;DHT22;44276;49.534;6.378;2022-07-23T14:59:43;36.30;18.60
53776;DHT22;44276;49.534;6.378;2022-07-23T15:02:11;36.30;17.70
53776;DHT22;44276;49.534;6.378;2022-07-23T15:04:39;36.20;18.20
53776;DHT22;44276;49.534;6.378;2022-07-23T15:07:08;35.80;18.20
53776;DHT22;44276;49.534;6.378;2022-07-23T15:09:37;35.20;18.60
53776;DHT22;44276;49.534;6.378;2022-07-23T15:12:05;35.20;19.20
53776;DHT22;44276;49.534;6.378;2022-07-23T15:14:38;34.70;18.90
53776;DHT22;44276;49.534;6.378;2022-07-23T15:17:08;34.00;20.60
53776;DHT22;44276;49.534;6.378;2022-07-23T15:19:40;33.80;20.50
53776;DHT22;44276;49.534;6.378;2022-07-23T15:22:09;33.90;20.50
53776;DHT22;44276;49.534;6.378;2022-07-23T15:24:37;33.80;20.60
53776;DHT22;44276;49.534;6.378;2022-07-23T15:27:05;33.90;20.20
53776;DHT22;44276;49.534;6.378;2022-07-23T15:29:33;34.00;20.60
53776;DHT22;44276;49.534;6.378;2022-07-23T15:32:02;33.50;21.30
53776;DHT22;44276;49.534;6.378;2022-07-23T15:34:32;33.00;21.70
53776;DHT22;44276;49.534;6.378;2022-07-23T15:37:03;33.00;21.90
53776;DHT22;44276;49.534;6.378;2022-07-23T15:39:37;33.10;21.00
53776;DHT22;44276;49.534;6.378;2022-07-23T15:42:06;33.80;21.20
53776;DHT22;44276;49.534;6.378;2022-07-23T15:44:40;34.30;21.30
53776;DHT22;44276;49.534;6.378;2022-07-23T15:47:11;34.70;20.90
53776;DHT22;44276;49.534;6.378;2022-07-23T15:49:42;34.80;20.70
53776;DHT22;44276;49.534;6.378;2022-07-23T15:52:11;34.60;20.90